PSLKS SBVC-SBSG
Flight info
| Callsign | PSLKS |
|---|---|
| Flight time | N/A |
| Altitude | 37000 |
| Route | ANKOL DCT EKERA UN866 USVUR UZ78 TOSAD |
| Aircraft | A320/M-SDE3FGHIRWY/LB1 |
Departure
| Time | 2026-05-08 00:46 |
|---|---|
| Airport | Glauber de Andrade Rocha Airport (SBVC) |
Arrival
| Time | N/A |
|---|---|
| Airport | Rio Grande do Norte/São Gonçalo do Amarante–Governador Aluízio Alves International Airport (SBSG) |
| Time | Latitude | Longitude | Altitude | Speed | Heading |
|---|---|---|---|---|---|
| 2026-05-08 00:27 | -14.90919 | -40.91771 | 2943 ft | 0 kts | 217° |
| 2026-05-08 00:37 | -14.90918 | -40.91771 | 2939 ft | 2 kts | 217° |
| 2026-05-08 00:38 | -14.90901 | -40.91752 | 2944 ft | 1 kts | 247° |
| 2026-05-08 00:38 | -14.90897 | -40.91740 | 2944 ft | 1 kts | 269° |
| 2026-05-08 00:38 | -14.90898 | -40.91727 | 2942 ft | 2 kts | 288° |
| 2026-05-08 00:38 | -14.90903 | -40.91716 | 2941 ft | 2 kts | 301° |
| 2026-05-08 00:39 | -14.90908 | -40.91706 | 2938 ft | 1 kts | 306° |
| 2026-05-08 00:39 | -14.90910 | -40.91704 | 2939 ft | 0 kts | 307° |
| 2026-05-08 00:39 | -14.90911 | -40.91703 | 2944 ft | 0 kts | 307° |
| 2026-05-08 00:39 | -14.90910 | -40.91703 | 2942 ft | 0 kts | 307° |
| 2026-05-08 00:42 | -14.90904 | -40.91711 | 2938 ft | 6 kts | 308° |
| 2026-05-08 00:43 | -14.90877 | -40.91727 | 2939 ft | 4 kts | 355° |
| 2026-05-08 00:43 | -14.90807 | -40.91673 | 2942 ft | 22 kts | 41° |
| 2026-05-08 00:43 | -14.90683 | -40.91629 | 2944 ft | 13 kts | 334° |
| 2026-05-08 00:43 | -14.90610 | -40.91733 | 2939 ft | 24 kts | 306° |
| 2026-05-08 00:44 | -14.90489 | -40.91906 | 2943 ft | 35 kts | 306° |
| 2026-05-08 00:44 | -14.90331 | -40.92130 | 2941 ft | 40 kts | 306° |
| 2026-05-08 00:44 | -14.90279 | -40.92242 | 2944 ft | 14 kts | 266° |
| 2026-05-08 00:44 | -14.90249 | -40.92254 | 2946 ft | 6 kts | 83° |
| 2026-05-08 00:45 | -14.90307 | -40.92157 | 2946 ft | 37 kts | 126° |
| 2026-05-08 00:45 | -14.90613 | -40.91719 | 2942 ft | 111 kts | 126° |
| 2026-05-08 00:45 | -14.91195 | -40.90905 | 2928 ft | 168 kts | 126° |
| 2026-05-08 00:45 | -14.91912 | -40.89881 | 3464 ft | 174 kts | 126° |
| 2026-05-08 00:46 | -14.92625 | -40.88880 | 4266 ft | 172 kts | 126° |
| 2026-05-08 00:46 | -14.93135 | -40.87782 | 4915 ft | 171 kts | 98° |
| 2026-05-08 00:46 | -14.92953 | -40.86541 | 5132 ft | 187 kts | 61° |
| 2026-05-08 00:46 | -14.92374 | -40.85845 | 5233 ft | 202 kts | 35° |
| 2026-05-08 00:47 | -14.90955 | -40.85483 | 5355 ft | 229 kts | 351° |
| 2026-05-08 00:47 | -14.89475 | -40.86242 | 5585 ft | 254 kts | 318° |
| 2026-05-08 00:47 | -14.88257 | -40.87675 | 5903 ft | 277 kts | 306° |
| 2026-05-08 00:47 | -14.87172 | -40.89364 | 6539 ft | 286 kts | 302° |
| 2026-05-08 00:48 | -14.86117 | -40.91124 | 7299 ft | 290 kts | 302° |
| 2026-05-08 00:48 | -14.85042 | -40.92907 | 8069 ft | 294 kts | 303° |
| 2026-05-08 00:48 | -14.83931 | -40.94688 | 8786 ft | 296 kts | 304° |
| 2026-05-08 00:48 | -14.82777 | -40.96472 | 9485 ft | 300 kts | 305° |
| 2026-05-08 00:49 | -14.81589 | -40.98262 | 10186 ft | 304 kts | 305° |
| 2026-05-08 00:49 | -14.80343 | -41.00106 | 10475 ft | 324 kts | 306° |
| 2026-05-08 00:49 | -14.78997 | -41.02077 | 10612 ft | 347 kts | 306° |
| 2026-05-08 00:49 | -14.77569 | -41.04165 | 10911 ft | 362 kts | 306° |
| 2026-05-08 00:50 | -14.76106 | -41.06307 | 11502 ft | 367 kts | 306° |
| 2026-05-08 00:50 | -14.74630 | -41.08474 | 12151 ft | 370 kts | 306° |
| 2026-05-08 00:50 | -14.73146 | -41.10659 | 12794 ft | 373 kts | 306° |
| 2026-05-08 00:50 | -14.71648 | -41.12862 | 13408 ft | 376 kts | 306° |
| 2026-05-08 00:51 | -14.70136 | -41.15082 | 14012 ft | 379 kts | 306° |
| 2026-05-08 00:51 | -14.68610 | -41.17319 | 14589 ft | 382 kts | 306° |
| 2026-05-08 00:51 | -14.67078 | -41.19572 | 15132 ft | 386 kts | 305° |
| 2026-05-08 00:51 | -14.65383 | -41.21737 | 15684 ft | 389 kts | 316° |
| 2026-05-08 00:52 | -14.63239 | -41.23432 | 16209 ft | 391 kts | 330° |
| 2026-05-08 00:52 | -14.60731 | -41.24525 | 16717 ft | 394 kts | 345° |
| 2026-05-08 00:52 | -14.58018 | -41.24935 | 17215 ft | 396 kts | 360° |
| 2026-05-08 00:52 | -14.55272 | -41.24655 | 17710 ft | 399 kts | 11° |
| 2026-05-08 00:53 | -14.52531 | -41.24137 | 18197 ft | 402 kts | 11° |
| 2026-05-08 00:53 | -14.49768 | -41.23615 | 18681 ft | 405 kts | 11° |
| 2026-05-08 00:53 | -14.46982 | -41.23092 | 19154 ft | 408 kts | 11° |
| 2026-05-08 00:53 | -14.44174 | -41.22569 | 19612 ft | 412 kts | 10° |
| 2026-05-08 00:54 | -14.41343 | -41.22043 | 20066 ft | 415 kts | 10° |
| 2026-05-08 00:54 | -14.38490 | -41.21514 | 20515 ft | 418 kts | 10° |
| 2026-05-08 00:54 | -14.35614 | -41.20985 | 20948 ft | 421 kts | 10° |
| 2026-05-08 00:54 | -14.32718 | -41.20451 | 21361 ft | 424 kts | 10° |
| 2026-05-08 00:55 | -14.29848 | -41.19920 | 21761 ft | 427 kts | 10° |
| 2026-05-08 00:55 | -14.26914 | -41.19374 | 22150 ft | 430 kts | 11° |
| 2026-05-08 00:55 | -14.23961 | -41.18825 | 22532 ft | 433 kts | 11° |
| 2026-05-08 00:55 | -14.20988 | -41.18274 | 22892 ft | 435 kts | 10° |
| 2026-05-08 00:56 | -14.17998 | -41.17718 | 23250 ft | 438 kts | 11° |
| 2026-05-08 00:56 | -14.14991 | -41.17161 | 23585 ft | 440 kts | 10° |
| 2026-05-08 00:56 | -14.11966 | -41.16604 | 23920 ft | 443 kts | 10° |
| 2026-05-08 00:56 | -14.08924 | -41.16045 | 24246 ft | 445 kts | 11° |
| 2026-05-08 00:57 | -14.05869 | -41.15477 | 24544 ft | 447 kts | 11° |
| 2026-05-08 00:57 | -14.02803 | -41.14905 | 24841 ft | 450 kts | 11° |
| 2026-05-08 00:57 | -13.99709 | -41.14328 | 25132 ft | 452 kts | 10° |
| 2026-05-08 00:57 | -13.96613 | -41.13758 | 25422 ft | 454 kts | 10° |
| 2026-05-08 00:58 | -13.93494 | -41.13187 | 25704 ft | 456 kts | 10° |
| 2026-05-08 00:58 | -13.90362 | -41.12610 | 25978 ft | 458 kts | 11° |
| 2026-05-08 00:58 | -13.87278 | -41.11756 | 26252 ft | 460 kts | 20° |
| 2026-05-08 00:58 | -13.84342 | -41.10431 | 26531 ft | 462 kts | 26° |
| 2026-05-08 00:59 | -13.81445 | -41.08987 | 26788 ft | 464 kts | 26° |
| 2026-05-08 00:59 | -13.78532 | -41.07541 | 27052 ft | 466 kts | 26° |
| 2026-05-08 00:59 | -13.75606 | -41.06093 | 27305 ft | 468 kts | 26° |
| 2026-05-08 00:59 | -13.72665 | -41.04640 | 27549 ft | 470 kts | 26° |
| 2026-05-08 01:00 | -13.69713 | -41.03180 | 27792 ft | 472 kts | 26° |
| 2026-05-08 01:00 | -13.66757 | -41.01716 | 28032 ft | 473 kts | 26° |
| 2026-05-08 01:00 | -13.63776 | -41.00240 | 28258 ft | 475 kts | 26° |
| 2026-05-08 01:00 | -13.60795 | -40.98768 | 28474 ft | 477 kts | 26° |
| 2026-05-08 01:01 | -13.57790 | -40.97283 | 28700 ft | 479 kts | 26° |
| 2026-05-08 01:01 | -13.54789 | -40.95803 | 28908 ft | 480 kts | 26° |
| 2026-05-08 01:01 | -13.51771 | -40.94314 | 29109 ft | 482 kts | 26° |
| 2026-05-08 01:01 | -13.48738 | -40.92814 | 29299 ft | 483 kts | 26° |
| 2026-05-08 01:02 | -13.45710 | -40.91315 | 29491 ft | 485 kts | 26° |
| 2026-05-08 01:02 | -13.42669 | -40.89812 | 29723 ft | 485 kts | 26° |
| 2026-05-08 01:02 | -13.39632 | -40.88313 | 29996 ft | 484 kts | 25° |
| 2026-05-08 01:02 | -13.36597 | -40.86819 | 30252 ft | 483 kts | 25° |
| 2026-05-08 01:03 | -13.33607 | -40.85343 | 30507 ft | 483 kts | 26° |
| 2026-05-08 01:03 | -13.30578 | -40.83846 | 30757 ft | 483 kts | 25° |
| 2026-05-08 01:03 | -13.27549 | -40.82351 | 31015 ft | 483 kts | 25° |
| 2026-05-08 01:03 | -13.24522 | -40.80859 | 31273 ft | 482 kts | 25° |
| 2026-05-08 01:04 | -13.21496 | -40.79373 | 31525 ft | 482 kts | 25° |
| 2026-05-08 01:04 | -13.18472 | -40.77887 | 31766 ft | 482 kts | 25° |
| 2026-05-08 01:04 | -13.15450 | -40.76402 | 32014 ft | 481 kts | 25° |
| 2026-05-08 01:04 | -13.12432 | -40.74915 | 32256 ft | 481 kts | 25° |
| 2026-05-08 01:05 | -13.09419 | -40.73425 | 32509 ft | 481 kts | 25° |
| 2026-05-08 01:05 | -13.06414 | -40.71940 | 32753 ft | 480 kts | 25° |
| 2026-05-08 01:05 | -13.03405 | -40.70452 | 32996 ft | 480 kts | 25° |
| 2026-05-08 01:05 | -13.00397 | -40.68968 | 33241 ft | 479 kts | 25° |
| 2026-05-08 01:06 | -12.97392 | -40.67491 | 33488 ft | 479 kts | 25° |
| 2026-05-08 01:06 | -12.94390 | -40.66017 | 33730 ft | 478 kts | 25° |
| 2026-05-08 01:06 | -12.91390 | -40.64547 | 33973 ft | 478 kts | 25° |
| 2026-05-08 01:06 | -12.88391 | -40.63082 | 34215 ft | 477 kts | 25° |
| 2026-05-08 01:07 | -12.85398 | -40.61612 | 34445 ft | 477 kts | 25° |
| 2026-05-08 01:07 | -12.82410 | -40.60137 | 34669 ft | 477 kts | 25° |
| 2026-05-08 01:07 | -12.79424 | -40.58664 | 34884 ft | 476 kts | 25° |
| 2026-05-08 01:07 | -12.76440 | -40.57193 | 35081 ft | 476 kts | 25° |
| 2026-05-08 01:08 | -12.73454 | -40.55725 | 35284 ft | 476 kts | 25° |
| 2026-05-08 01:08 | -12.70470 | -40.54261 | 35486 ft | 475 kts | 25° |
| 2026-05-08 01:08 | -12.67487 | -40.52800 | 35676 ft | 475 kts | 25° |
| 2026-05-08 01:08 | -12.64504 | -40.51343 | 35853 ft | 475 kts | 25° |
| 2026-05-08 01:09 | -12.61528 | -40.49888 | 36052 ft | 474 kts | 25° |
| 2026-05-08 01:09 | -12.58551 | -40.48432 | 36215 ft | 474 kts | 25° |
| 2026-05-08 01:09 | -12.55577 | -40.46974 | 36370 ft | 474 kts | 25° |
| 2026-05-08 01:09 | -12.52603 | -40.45516 | 36506 ft | 474 kts | 25° |
| 2026-05-08 01:10 | -12.49668 | -40.44077 | 36651 ft | 474 kts | 25° |
| 2026-05-08 01:10 | -12.46666 | -40.42604 | 36893 ft | 470 kts | 24° |
| 2026-05-08 01:10 | -12.43760 | -40.41180 | 37057 ft | 469 kts | 25° |
| 2026-05-08 01:11 | -12.37884 | -40.38301 | 37097 ft | 468 kts | 24° |
| 2026-05-08 01:11 | -12.32001 | -40.35427 | 37094 ft | 470 kts | 24° |
| 2026-05-08 01:12 | -12.26069 | -40.32539 | 37089 ft | 474 kts | 24° |
| 2026-05-08 01:12 | -12.20112 | -40.29627 | 37096 ft | 475 kts | 24° |
| 2026-05-08 01:13 | -12.14153 | -40.26715 | 37092 ft | 475 kts | 24° |
| 2026-05-08 01:13 | -12.08187 | -40.23809 | 37091 ft | 475 kts | 24° |
| 2026-05-08 01:14 | -12.02217 | -40.20898 | 37103 ft | 475 kts | 24° |
| 2026-05-08 01:14 | -11.96247 | -40.17990 | 37092 ft | 475 kts | 24° |
| 2026-05-08 01:15 | -11.90278 | -40.15085 | 37095 ft | 475 kts | 24° |
| 2026-05-08 01:15 | -11.84310 | -40.12170 | 37096 ft | 476 kts | 24° |
| 2026-05-08 01:16 | -11.78328 | -40.09256 | 37059 ft | 478 kts | 24° |
| 2026-05-08 01:16 | -11.72311 | -40.06334 | 37056 ft | 480 kts | 24° |
| 2026-05-08 01:17 | -11.66280 | -40.03399 | 37057 ft | 481 kts | 24° |
| 2026-05-08 01:17 | -11.60235 | -40.00466 | 37053 ft | 481 kts | 24° |
| 2026-05-08 01:18 | -11.54199 | -39.97535 | 37049 ft | 481 kts | 24° |
| 2026-05-08 01:18 | -11.48156 | -39.94603 | 37049 ft | 481 kts | 24° |
| 2026-05-08 01:19 | -11.42117 | -39.91669 | 37053 ft | 481 kts | 24° |
| 2026-05-08 01:19 | -11.36080 | -39.88735 | 37055 ft | 480 kts | 24° |
| 2026-05-08 01:20 | -11.30044 | -39.85806 | 37054 ft | 480 kts | 24° |
| 2026-05-08 01:20 | -11.24009 | -39.82884 | 37055 ft | 480 kts | 24° |
| 2026-05-08 01:21 | -11.18019 | -39.79985 | 37058 ft | 480 kts | 24° |
| 2026-05-08 01:21 | -11.11994 | -39.77065 | 37059 ft | 480 kts | 24° |
| 2026-05-08 01:22 | -11.05970 | -39.74150 | 37061 ft | 479 kts | 24° |
| 2026-05-08 01:22 | -10.99951 | -39.71237 | 37062 ft | 479 kts | 24° |
| 2026-05-08 01:23 | -10.93938 | -39.68322 | 37062 ft | 478 kts | 24° |
| 2026-05-08 01:23 | -10.87928 | -39.65417 | 37062 ft | 478 kts | 24° |
| 2026-05-08 01:24 | -10.81918 | -39.62520 | 37062 ft | 478 kts | 24° |
| 2026-05-08 01:24 | -10.75913 | -39.59624 | 37063 ft | 477 kts | 24° |
| 2026-05-08 01:25 | -10.69921 | -39.56730 | 37061 ft | 477 kts | 24° |
| 2026-05-08 01:25 | -10.63928 | -39.53834 | 37061 ft | 477 kts | 24° |